createdAt,value
2019-03-23T00:01:38.598Z,50.27
2019-03-23T00:04:10.734Z,49.43
2019-03-23T00:06:42.430Z,49.80
2019-03-23T00:09:12.296Z,50.17
2019-03-23T00:11:43.297Z,60.07
2019-03-23T00:14:17.125Z,64.47
2019-03-23T00:16:47.106Z,49.03
2019-03-23T00:19:18.286Z,47.97
2019-03-23T00:21:48.853Z,49.83
2019-03-23T00:24:20.200Z,48.30
2019-03-23T00:26:51.560Z,47.60
2019-03-23T00:29:21.454Z,47.97
2019-03-23T00:31:53.747Z,49.00
2019-03-23T00:34:26.233Z,46.53
2019-03-23T00:36:57.173Z,45.90
2019-03-23T00:39:29.591Z,48.33
2019-03-23T00:42:00.607Z,48.90
2019-03-23T00:44:31.673Z,51.50
2019-03-23T00:47:04.537Z,51.17
2019-03-23T00:49:35.529Z,51.40
2019-03-23T00:52:06.650Z,52.93
2019-03-23T00:54:37.678Z,60.13
2019-03-23T00:57:08.614Z,62.63
2019-03-23T00:59:39.576Z,59.97
2019-03-23T01:02:09.380Z,57.30
2019-03-23T01:04:39.408Z,53.93
2019-03-23T01:07:09.462Z,53.80
2019-03-23T01:09:39.450Z,51.13
2019-03-23T01:12:11.652Z,55.40
2019-03-23T01:14:42.647Z,57.63
2019-03-23T01:17:15.137Z,55.73
2019-03-23T01:19:47.560Z,54.67
2019-03-23T01:22:19.187Z,53.93
2019-03-23T01:24:50.423Z,55.53
2019-03-23T01:27:20.338Z,53.73
2019-03-23T01:29:51.461Z,54.93
2019-03-23T01:32:22.490Z,55.77
2019-03-23T01:34:53.863Z,60.40
2019-03-23T01:37:25.024Z,56.73
2019-03-23T01:39:57.679Z,65.40
2019-03-23T01:42:28.651Z,61.70
2019-03-23T01:45:01.016Z,62.80
2019-03-23T01:47:32.701Z,61.73
2019-03-23T01:50:02.622Z,61.60
2019-03-23T01:52:35.499Z,61.13
2019-03-23T01:55:12.322Z,62.83
2019-03-23T01:57:45.289Z,63.67
2019-03-23T02:00:17.224Z,61.53
2019-03-23T02:02:49.538Z,62.60
2019-03-23T02:05:20.514Z,66.10
2019-03-23T02:07:50.411Z,64.10
2019-03-23T02:10:21.347Z,61.63
2019-03-23T02:12:53.555Z,63.60
2019-03-23T02:15:23.512Z,61.57
2019-03-23T02:18:15.265Z,60.53
2019-03-23T02:20:47.495Z,63.17
2019-03-23T02:23:18.849Z,64.53
2019-03-23T02:25:49.055Z,61.73
2019-03-23T02:28:18.932Z,69.40
2019-03-23T02:30:49.803Z,64.07
2019-03-23T02:33:20.915Z,64.40
2019-03-23T02:35:55.063Z,60.37
2019-03-23T02:38:29.219Z,59.57
2019-03-23T02:41:01.423Z,61.90
2019-03-23T02:43:34.081Z,63.30
2019-03-23T02:46:06.545Z,66.50
2019-03-23T02:48:39.690Z,63.27
2019-03-23T02:51:11.109Z,67.17
2019-03-23T02:53:42.189Z,62.57
2019-03-23T02:56:14.476Z,64.10
2019-03-23T02:58:45.533Z,65.33
2019-03-23T03:01:19.647Z,63.63
2019-03-23T03:03:53.421Z,62.47
2019-03-23T03:06:24.643Z,64.60
2019-03-23T03:08:56.204Z,63.73
2019-03-23T03:11:26.192Z,64.73
2019-03-23T03:13:56.028Z,65.70
2019-03-23T03:16:25.832Z,65.40
2019-03-23T03:18:58.036Z,59.83
2019-03-23T03:21:27.875Z,61.63
2019-03-23T03:23:58.663Z,60.67
2019-03-23T03:26:28.709Z,59.67
2019-03-23T03:29:01.818Z,64.47
2019-03-23T03:31:51.709Z,64.30
2019-03-23T03:34:24.973Z,60.20
2019-03-23T03:36:57.289Z,66.03
2019-03-23T03:39:27.209Z,62.30
2019-03-23T03:41:58.525Z,60.10
2019-03-23T03:44:29.499Z,64.80
2019-03-23T03:46:58.810Z,64.67
2019-03-23T03:49:28.805Z,63.03
2019-03-23T03:52:01.394Z,75.17
2019-03-23T03:54:32.861Z,70.93
2019-03-23T03:57:04.128Z,71.87
2019-03-23T03:59:35.225Z,70.00
2019-03-23T04:02:25.587Z,64.57
2019-03-23T04:04:56.752Z,60.73
2019-03-23T04:07:30.056Z,57.73
2019-03-23T04:10:04.667Z,61.57
2019-03-23T04:12:35.839Z,61.10
2019-03-23T04:15:09.661Z,66.53
2019-03-23T04:17:39.770Z,58.67
2019-03-23T04:20:10.854Z,59.17
2019-03-23T04:22:44.787Z,62.13
2019-03-23T04:25:14.881Z,72.17
2019-03-23T04:27:46.417Z,57.20
2019-03-23T04:30:18.659Z,55.77
2019-03-23T04:32:50.979Z,58.13
2019-03-23T04:35:24.642Z,61.03
2019-03-23T04:37:56.027Z,57.93
2019-03-23T04:40:26.651Z,54.17
2019-03-23T04:42:56.569Z,56.07
2019-03-23T04:45:26.382Z,58.23
2019-03-23T04:48:18.112Z,59.60
2019-03-23T04:50:51.019Z,58.57
2019-03-23T04:53:23.570Z,54.47
2019-03-23T04:55:56.062Z,60.23
2019-03-23T04:58:27.353Z,79.00
2019-03-23T05:00:58.917Z,61.30
2019-03-23T05:03:31.202Z,57.53
2019-03-23T05:06:02.416Z,59.17
2019-03-23T05:08:34.143Z,55.60
2019-03-23T05:11:07.166Z,58.97
2019-03-23T05:13:39.328Z,74.13
2019-03-23T05:16:15.109Z,83.70
2019-03-23T05:18:45.842Z,77.07
2019-03-23T05:21:18.184Z,76.77
2019-03-23T05:23:51.783Z,69.07
2019-03-23T05:26:24.881Z,65.97
2019-03-23T05:28:55.441Z,67.07
2019-03-23T05:31:25.499Z,65.23
2019-03-23T05:33:57.578Z,62.77
2019-03-23T05:36:32.382Z,69.50
2019-03-23T05:39:03.313Z,77.43
2019-03-23T05:41:34.874Z,67.70
2019-03-23T05:44:07.437Z,70.17
2019-03-23T05:46:37.538Z,72.87
2019-03-23T05:49:07.982Z,70.10
2019-03-23T05:51:37.368Z,72.93
2019-03-23T05:54:11.836Z,73.77
2019-03-23T05:56:44.279Z,79.40
2019-03-23T05:59:16.386Z,76.80
2019-03-23T06:01:47.346Z,68.63
2019-03-23T06:04:17.357Z,72.47
2019-03-23T06:06:49.823Z,77.67
2019-03-23T06:09:24.289Z,71.40
2019-03-23T06:11:55.669Z,71.43
2019-03-23T06:14:28.319Z,65.33
2019-03-23T06:17:01.669Z,59.77
2019-03-23T06:19:32.707Z,63.93
2019-03-23T06:22:03.898Z,65.07
2019-03-23T06:24:36.275Z,62.37
2019-03-23T06:27:06.907Z,61.77
2019-03-23T06:29:39.615Z,61.33
2019-03-23T06:32:12.152Z,63.43
2019-03-23T06:34:43.123Z,65.03
2019-03-23T06:37:14.710Z,67.43
2019-03-23T06:39:47.227Z,61.97
2019-03-23T06:42:18.128Z,60.87
2019-03-23T06:44:48.084Z,58.63
2019-03-23T06:47:19.624Z,98.70
2019-03-23T06:49:54.713Z,79.07
2019-03-23T06:52:26.955Z,64.60
2019-03-23T06:54:58.172Z,63.67
2019-03-23T06:57:29.122Z,61.20
2019-03-23T07:00:00.060Z,60.37
2019-03-23T07:02:33.056Z,60.87
2019-03-23T07:05:03.702Z,58.57
2019-03-23T07:07:35.033Z,57.07
2019-03-23T07:10:09.443Z,58.67
2019-03-23T07:12:43.217Z,58.37
2019-03-23T07:15:20.411Z,60.00
2019-03-23T07:17:52.826Z,58.53
2019-03-23T07:20:25.094Z,56.93
2019-03-23T07:22:55.921Z,58.53
2019-03-23T07:25:26.126Z,61.47
2019-03-23T07:27:57.529Z,56.47
2019-03-23T07:30:27.429Z,59.03
2019-03-23T07:32:58.610Z,62.27
2019-03-23T07:35:28.415Z,56.17
2019-03-23T07:37:59.365Z,56.27
2019-03-23T07:40:31.228Z,55.93
2019-03-23T07:43:04.626Z,52.33
2019-03-23T07:45:37.184Z,54.57
2019-03-23T07:48:07.200Z,59.87
2019-03-23T07:50:38.203Z,55.07
2019-03-23T07:53:09.277Z,52.17
2019-03-23T07:55:42.304Z,54.43
2019-03-23T07:58:34.059Z,52.37
2019-03-23T08:01:05.207Z,52.90
2019-03-23T08:06:08.497Z,49.40
2019-03-23T08:08:42.350Z,46.30
2019-03-23T08:11:14.297Z,51.97
2019-03-23T08:13:47.119Z,50.50
2019-03-23T08:16:19.550Z,48.20
2019-03-23T08:18:53.962Z,50.10
2019-03-23T08:21:24.330Z,52.67
2019-03-23T08:23:55.307Z,55.63
2019-03-23T08:26:25.248Z,51.53
2019-03-23T08:28:56.308Z,52.83
2019-03-23T08:31:27.969Z,54.33
2019-03-23T08:34:01.902Z,51.50
2019-03-23T08:36:32.206Z,49.63
2019-03-23T08:39:04.667Z,49.93
2019-03-23T08:41:37.136Z,52.00
2019-03-23T08:44:08.071Z,62.23
2019-03-23T08:46:40.628Z,51.83
2019-03-23T08:49:14.867Z,51.67
2019-03-23T08:51:47.500Z,50.87
2019-03-23T08:54:19.922Z,50.47
2019-03-23T08:56:52.300Z,48.60
2019-03-23T08:59:22.402Z,52.13
2019-03-23T09:01:54.804Z,78.90
2019-03-23T09:04:25.961Z,50.63
2019-03-23T09:06:59.330Z,50.87
2019-03-23T09:09:32.404Z,53.20
2019-03-23T09:12:07.032Z,68.43
2019-03-23T09:14:38.406Z,48.37
2019-03-23T09:17:08.545Z,48.30
2019-03-23T09:19:39.891Z,51.50
2019-03-23T09:22:10.576Z,55.57
2019-03-23T09:24:46.322Z,51.43
2019-03-23T09:27:19.065Z,46.80
2019-03-23T09:29:49.146Z,59.07
2019-03-23T09:32:23.181Z,57.47
2019-03-23T09:34:55.035Z,52.23
2019-03-23T09:37:27.591Z,52.20
2019-03-23T09:40:09.865Z,52.67
2019-03-23T09:42:30.412Z,52.23
2019-03-23T09:45:01.719Z,45.83
2019-03-23T09:47:35.815Z,55.87
2019-03-23T09:50:07.552Z,44.20
2019-03-23T09:52:38.323Z,40.57
2019-03-23T09:55:10.736Z,44.53
2019-03-23T09:57:40.952Z,40.90
2019-03-23T10:00:14.851Z,45.13
2019-03-23T10:02:47.676Z,40.03
2019-03-23T10:05:20.248Z,40.97
2019-03-23T10:07:53.161Z,42.03
2019-03-23T10:10:25.817Z,40.30
2019-03-23T10:12:57.317Z,45.23
2019-03-23T10:15:30.068Z,43.73
2019-03-23T10:18:02.830Z,36.63
2019-03-23T10:20:35.669Z,41.20
2019-03-23T10:23:07.011Z,40.27
2019-03-23T10:25:38.453Z,48.73
2019-03-23T10:28:10.965Z,43.60
2019-03-23T10:30:44.286Z,42.67
2019-03-23T10:33:15.822Z,53.23
2019-03-23T10:35:49.501Z,38.20
2019-03-23T10:38:20.504Z,38.97
2019-03-23T10:40:53.507Z,35.67
2019-03-23T10:43:23.632Z,35.03
2019-03-23T10:45:54.934Z,35.57
2019-03-23T10:48:28.167Z,33.70
2019-03-23T10:51:00.722Z,33.23
2019-03-23T10:53:32.218Z,32.40
2019-03-23T10:56:03.453Z,30.53
2019-03-23T11:01:08.970Z,30.93
2019-03-23T11:03:41.633Z,32.90
2019-03-23T11:06:16.369Z,30.73
2019-03-23T11:08:55.897Z,31.97
2019-03-23T11:11:27.627Z,30.80
2019-03-23T11:14:01.486Z,30.68
2019-03-23T11:16:32.239Z,33.05
2019-03-23T11:19:13.210Z,30.40
2019-03-23T11:21:39.357Z,29.70
2019-03-23T11:24:10.678Z,28.57
2019-03-23T11:26:41.562Z,28.70
2019-03-23T11:29:12.563Z,29.07
2019-03-23T11:31:46.443Z,27.95
2019-03-23T11:34:18.007Z,28.52
2019-03-23T11:36:49.147Z,29.00
2019-03-23T11:39:20.572Z,28.17
2019-03-23T11:41:53.805Z,31.48
2019-03-23T11:44:25.817Z,30.20
2019-03-23T11:46:55.660Z,28.70
2019-03-23T11:49:28.685Z,26.62
2019-03-23T11:52:00.140Z,38.08
2019-03-23T11:54:32.796Z,38.42
2019-03-23T11:57:05.446Z,31.02
2019-03-23T11:59:36.650Z,29.87
2019-03-23T12:02:06.738Z,30.75
2019-03-23T12:04:37.491Z,33.33
2019-03-23T12:07:07.555Z,29.30
2019-03-23T12:09:38.518Z,28.35
2019-03-23T12:12:12.539Z,27.85
2019-03-23T12:14:44.185Z,24.85
2019-03-23T12:17:18.447Z,26.75
2019-03-23T12:19:49.889Z,26.93
2019-03-23T12:22:22.589Z,25.43
2019-03-23T12:24:53.723Z,25.00
2019-03-23T12:27:24.777Z,26.27
2019-03-23T12:29:54.884Z,25.20
2019-03-23T12:32:24.750Z,26.45
2019-03-23T12:34:56.933Z,26.73
2019-03-23T12:37:28.261Z,25.80
2019-03-23T12:40:00.640Z,25.80
2019-03-23T12:42:32.547Z,27.10
2019-03-23T12:45:05.542Z,31.27
2019-03-23T12:47:38.206Z,27.40
2019-03-23T12:50:11.046Z,26.07
2019-03-23T12:52:45.535Z,26.33
2019-03-23T12:55:18.007Z,22.05
2019-03-23T12:57:48.177Z,22.10
2019-03-23T13:00:19.725Z,36.13
2019-03-23T13:02:52.611Z,19.57
2019-03-23T13:05:25.535Z,18.80
2019-03-23T13:08:00.156Z,21.75
2019-03-23T13:10:34.142Z,18.80
2019-03-23T13:13:08.959Z,17.20
2019-03-23T13:15:41.513Z,20.80
2019-03-23T13:18:26.721Z,20.52
2019-03-23T13:20:49.524Z,15.63
2019-03-23T13:23:20.020Z,16.67
2019-03-23T13:25:53.805Z,14.80
2019-03-23T13:28:28.013Z,14.47
2019-03-23T13:31:01.138Z,19.62
2019-03-23T13:33:32.931Z,41.30
2019-03-23T13:36:04.563Z,21.40
2019-03-23T13:38:41.028Z,18.42
2019-03-23T13:41:13.340Z,19.23
2019-03-23T13:43:49.603Z,17.95
2019-03-23T13:46:20.818Z,15.60
2019-03-23T13:48:52.831Z,14.40
2019-03-23T13:51:24.843Z,11.18
2019-03-23T13:53:54.731Z,10.93
2019-03-23T13:56:25.817Z,11.12
2019-03-23T13:58:58.295Z,9.48
2019-03-23T14:01:28.063Z,9.10
2019-03-23T14:03:57.957Z,10.88
2019-03-23T14:06:31.095Z,63.55
2019-03-23T14:09:00.870Z,43.17
2019-03-23T14:11:32.161Z,18.50
2019-03-23T14:14:03.199Z,9.83
2019-03-23T14:16:35.627Z,9.08
2019-03-23T14:19:09.045Z,15.23
2019-03-23T14:21:41.567Z,10.95
2019-03-23T14:24:12.815Z,8.83
2019-03-23T14:26:45.525Z,7.58
2019-03-23T14:29:15.579Z,5.33
2019-03-23T14:31:45.622Z,6.12
2019-03-23T14:34:19.501Z,7.58
2019-03-23T14:36:51.980Z,10.13
2019-03-23T14:39:24.520Z,20.43
2019-03-23T14:42:04.408Z,6.62
2019-03-23T14:44:46.154Z,8.28
2019-03-23T14:47:18.746Z,9.30
2019-03-23T14:49:50.323Z,5.95
2019-03-23T14:52:40.640Z,7.95
2019-03-23T14:55:11.147Z,8.00
2019-03-23T14:57:43.588Z,10.03
2019-03-23T15:00:14.987Z,23.67
2019-03-23T15:02:47.478Z,11.78
2019-03-23T15:05:19.926Z,12.05
2019-03-23T15:07:50.811Z,17.62
2019-03-23T15:10:21.867Z,8.60
2019-03-23T15:12:53.102Z,8.25
2019-03-23T15:15:25.624Z,8.63
2019-03-23T15:17:56.892Z,10.08
2019-03-23T15:20:28.293Z,10.88
2019-03-23T15:22:59.582Z,9.85
2019-03-23T15:25:34.328Z,8.13
2019-03-23T15:28:06.914Z,11.78
2019-03-23T15:30:40.361Z,9.28
2019-03-23T15:33:10.344Z,10.72
2019-03-23T15:35:41.197Z,7.70
2019-03-23T15:38:12.361Z,8.03
2019-03-23T15:40:44.926Z,8.87
2019-03-23T15:43:15.740Z,8.20
2019-03-23T15:45:48.174Z,19.27
2019-03-23T15:48:20.603Z,19.53
2019-03-23T15:50:50.811Z,19.70
2019-03-23T15:53:21.602Z,22.70
2019-03-23T15:58:45.549Z,23.37
2019-03-23T16:01:18.109Z,22.87
2019-03-23T16:03:50.419Z,29.53
2019-03-23T16:06:22.976Z,29.07
2019-03-23T16:08:54.770Z,28.77
2019-03-23T16:11:25.608Z,32.23
2019-03-23T16:13:55.510Z,33.70
2019-03-23T16:16:25.587Z,31.90
2019-03-23T16:18:58.303Z,34.10
2019-03-23T16:21:30.685Z,38.43
2019-03-23T16:24:01.988Z,32.87
2019-03-23T16:29:03.844Z,39.60
2019-03-23T16:31:38.282Z,35.97
2019-03-23T16:34:10.342Z,36.57
2019-03-23T16:36:41.502Z,39.07
2019-03-23T16:39:13.783Z,48.03
2019-03-23T16:41:47.784Z,50.00
2019-03-23T16:44:21.130Z,44.90
2019-03-23T16:46:55.841Z,71.40
2019-03-23T16:49:28.080Z,69.20
2019-03-23T16:51:58.086Z,58.63
2019-03-23T16:54:30.409Z,46.27
2019-03-23T16:57:02.883Z,45.10
2019-03-23T16:59:36.597Z,47.23
2019-03-23T17:02:07.699Z,60.07
2019-03-23T17:04:39.041Z,132.87
2019-03-23T17:07:10.616Z,133.57
2019-03-23T17:10:01.561Z,124.03
2019-03-23T17:12:32.711Z,90.90
2019-03-23T17:15:04.168Z,100.50
2019-03-23T17:17:34.210Z,113.33
2019-03-23T17:20:06.468Z,229.37
2019-03-23T17:22:38.512Z,152.80
2019-03-23T17:25:10.074Z,76.53
2019-03-23T17:27:43.322Z,55.27
2019-03-23T17:30:13.500Z,48.90
2019-03-23T17:32:46.536Z,46.97
2019-03-23T17:35:16.480Z,46.70
2019-03-23T17:37:47.914Z,52.37
2019-03-23T17:40:19.387Z,53.33
2019-03-23T17:42:50.846Z,49.60
2019-03-23T17:45:22.582Z,47.47
2019-03-23T17:47:54.021Z,45.20
2019-03-23T17:50:26.403Z,48.37
2019-03-23T17:52:56.546Z,45.90
2019-03-23T17:55:28.533Z,47.60
2019-03-23T17:58:00.482Z,50.87
2019-03-23T18:00:30.934Z,39.77
2019-03-23T18:03:01.135Z,44.17
2019-03-23T18:05:31.356Z,50.30
2019-03-23T18:08:02.402Z,44.37
2019-03-23T18:10:35.132Z,45.70
2019-03-23T18:13:16.121Z,49.63
2019-03-23T18:15:42.768Z,58.97
2019-03-23T18:18:13.876Z,61.50
2019-03-23T18:20:44.524Z,57.10
2019-03-23T18:23:19.323Z,46.27
2019-03-23T18:25:50.346Z,35.13
2019-03-23T18:28:21.455Z,45.43
2019-03-23T18:30:53.884Z,32.27
2019-03-23T18:33:43.928Z,32.00
2019-03-23T18:36:17.507Z,30.90
2019-03-23T18:38:51.720Z,30.87
2019-03-23T18:41:23.209Z,30.10
2019-03-23T18:44:02.764Z,28.57
2019-03-23T18:46:40.767Z,50.67
2019-03-23T18:49:12.861Z,141.43
2019-03-23T18:51:45.288Z,254.37
2019-03-23T18:54:17.786Z,244.20
2019-03-23T18:56:48.829Z,193.63
2019-03-23T18:59:21.133Z,191.23
2019-03-23T19:01:53.204Z,187.90
2019-03-23T19:04:27.440Z,169.80
2019-03-23T19:06:57.843Z,173.07
2019-03-23T19:09:28.747Z,231.53
2019-03-23T19:11:59.784Z,119.57
2019-03-23T19:14:29.743Z,117.47
2019-03-23T19:17:02.529Z,112.67
2019-03-23T19:19:34.804Z,96.83
2019-03-23T19:22:04.809Z,42.10
2019-03-23T19:24:35.534Z,57.30
2019-03-23T19:27:08.531Z,61.67
2019-03-23T19:29:40.926Z,82.43
2019-03-23T19:32:14.070Z,120.97
2019-03-23T19:34:44.256Z,164.97
2019-03-23T19:37:15.942Z,211.97
2019-03-23T19:39:50.718Z,158.40
2019-03-23T19:42:25.010Z,143.17
2019-03-23T19:45:03.854Z,117.85
2019-03-23T19:47:34.830Z,114.00
2019-03-23T19:50:17.147Z,123.81
2019-03-23T19:52:51.198Z,95.47
2019-03-23T19:55:21.230Z,84.10
2019-03-23T19:57:54.702Z,77.87
2019-03-23T20:00:25.546Z,80.97
2019-03-23T20:02:56.628Z,78.30
2019-03-23T20:05:28.936Z,82.03
2019-03-23T20:08:05.375Z,72.43
2019-03-23T20:10:35.152Z,89.30
2019-03-23T20:13:05.257Z,103.33
2019-03-23T20:15:37.750Z,123.63
2019-03-23T20:18:09.083Z,138.20
2019-03-23T20:20:40.141Z,79.70
2019-03-23T20:23:10.500Z,67.13
2019-03-23T20:25:42.621Z,67.43
2019-03-23T20:28:13.891Z,74.30
2019-03-23T20:30:46.560Z,88.43
2019-03-23T20:33:19.636Z,97.90
2019-03-23T20:35:49.172Z,89.83
2019-03-23T20:38:20.106Z,80.83
2019-03-23T20:40:53.735Z,64.80
2019-03-23T20:43:24.485Z,52.20
2019-03-23T20:45:56.959Z,70.50
2019-03-23T20:48:28.176Z,93.80
2019-03-23T20:50:58.198Z,102.23
2019-03-23T20:53:30.792Z,80.63
2019-03-23T20:56:00.651Z,74.00
2019-03-23T20:58:31.916Z,42.40
2019-03-23T21:01:03.081Z,64.93
2019-03-23T21:03:37.427Z,66.93
2019-03-23T21:06:08.876Z,45.90
2019-03-23T21:08:39.914Z,40.20
2019-03-23T21:11:10.469Z,45.90
2019-03-23T21:13:41.986Z,48.63
2019-03-23T21:16:11.826Z,48.57
2019-03-23T21:18:42.946Z,51.50
2019-03-23T21:21:14.234Z,48.67
2019-03-23T21:23:45.637Z,47.13
2019-03-23T21:26:17.770Z,48.50
2019-03-23T21:28:48.855Z,49.13
2019-03-23T21:31:18.759Z,48.27
2019-03-23T21:33:49.835Z,46.53
2019-03-23T21:36:21.127Z,46.80
2019-03-23T21:38:51.997Z,49.37
2019-03-23T21:41:23.787Z,48.70
2019-03-23T21:43:55.040Z,46.70
2019-03-23T21:46:24.797Z,46.23
2019-03-23T21:48:57.258Z,48.73
2019-03-23T21:51:31.704Z,48.73
2019-03-23T21:54:04.602Z,49.47
2019-03-23T21:56:55.105Z,49.83
2019-03-23T21:59:27.975Z,50.27
2019-03-23T22:01:59.508Z,49.00
2019-03-23T22:04:32.115Z,48.70
2019-03-23T22:07:04.915Z,48.00
2019-03-23T22:09:37.313Z,46.93
2019-03-23T22:12:08.669Z,50.17
2019-03-23T22:14:41.905Z,51.33
2019-03-23T22:17:11.045Z,50.20
2019-03-23T22:19:40.992Z,52.57
2019-03-23T22:22:13.061Z,52.63
2019-03-23T22:24:45.720Z,48.23
2019-03-23T22:27:19.263Z,47.00
2019-03-23T22:29:52.254Z,48.17
2019-03-23T22:32:26.641Z,46.97
2019-03-23T22:34:58.078Z,45.83
2019-03-23T22:37:28.801Z,45.03
2019-03-23T22:40:01.697Z,47.63
2019-03-23T22:42:34.789Z,46.17
2019-03-23T22:45:08.851Z,47.87
2019-03-23T22:47:40.043Z,50.30
2019-03-23T22:50:12.389Z,48.07
2019-03-23T22:52:46.771Z,48.63
2019-03-23T22:55:17.911Z,48.77
2019-03-23T22:57:49.121Z,44.37
2019-03-23T23:00:29.567Z,43.27
2019-03-23T23:03:00.682Z,40.63
2019-03-23T23:05:31.356Z,38.43
2019-03-23T23:08:00.765Z,39.40
2019-03-23T23:10:33.608Z,39.00
2019-03-23T23:13:05.882Z,38.30
2019-03-23T23:15:35.833Z,36.37
2019-03-23T23:18:06.012Z,36.57
2019-03-23T23:20:38.073Z,36.70
2019-03-23T23:23:10.632Z,35.67
2019-03-23T23:25:43.633Z,35.33
2019-03-23T23:28:14.118Z,33.03
2019-03-23T23:30:44.042Z,33.23
2019-03-23T23:33:15.104Z,34.47
2019-03-23T23:35:46.189Z,32.60
2019-03-23T23:38:18.559Z,32.63
2019-03-23T23:40:53.084Z,32.80
2019-03-23T23:43:24.152Z,32.63
2019-03-23T23:45:57.700Z,32.97
2019-03-23T23:48:27.126Z,30.67
2019-03-23T23:51:00.552Z,31.73
2019-03-23T23:53:31.507Z,30.13
2019-03-23T23:56:01.467Z,31.73
2019-03-23T23:58:32.338Z,30.50
